Terminal Aerodrome Forecast
Issued by NWS

Current Version | Previous Version | Text Only | Print | Product List | Glossary Off
Versions: 1 2 3 4 5 6 7 8 9 10 11 12 13 14 15 16

000
FTUS41 KPBZ 220814 AAA
TAFHLG
TAF AMD
KHLG 220814Z 2208/2306 01006KT P6SM -RA VCSH BKN026 OVC080
     FM221200 01009KT P6SM VCSH OVC025
     FM221800 01010KT P6SM OVC040=

USA.gov is the U.S. government's official web portal to all federal, state and local government web resources and services.